createdAt,value
2022-11-04T00:00:16.519Z,11.60
2022-11-04T00:02:44.797Z,11.50
2022-11-04T00:05:13.039Z,11.40
2022-11-04T00:07:59.847Z,11.30
2022-11-04T00:10:41.880Z,11.20
2022-11-04T00:13:10.370Z,11.10
2022-11-04T00:15:55.892Z,11.10
2022-11-04T00:18:24.097Z,11.10
2022-11-04T00:21:09.535Z,11.00
2022-11-04T00:23:56.763Z,11.00
2022-11-04T00:26:42.089Z,11.00
2022-11-04T00:29:10.528Z,11.00
2022-11-04T00:31:56.319Z,11.00
2022-11-04T00:34:24.487Z,11.00
2022-11-04T00:36:52.872Z,11.00
2022-11-04T00:39:22.503Z,11.00
2022-11-04T00:41:50.628Z,11.10
2022-11-04T00:44:18.806Z,11.10
2022-11-04T00:46:47.023Z,11.10
2022-11-04T00:49:15.488Z,11.10
2022-11-04T00:51:43.656Z,11.10
2022-11-04T00:54:11.944Z,11.10
2022-11-04T00:56:42.068Z,11.10
2022-11-04T00:59:14.362Z,11.10
2022-11-04T01:01:43.189Z,11.10
2022-11-04T01:04:11.993Z,11.20
2022-11-04T01:06:40.181Z,11.20
2022-11-04T01:09:10.050Z,11.20
2022-11-04T01:11:38.233Z,11.20
2022-11-04T01:14:07.839Z,11.10
2022-11-04T01:16:36.221Z,11.10
2022-11-04T01:19:04.782Z,11.10
2022-11-04T01:21:32.950Z,11.00
2022-11-04T01:24:01.684Z,10.90
2022-11-04T01:26:30.545Z,10.90
2022-11-04T01:29:00.125Z,10.80
2022-11-04T01:31:32.002Z,10.80
2022-11-04T01:34:00.617Z,10.80
2022-11-04T01:36:29.511Z,10.80
2022-11-04T01:38:58.583Z,10.70
2022-11-04T01:41:29.340Z,10.70
2022-11-04T01:43:59.153Z,10.70
2022-11-04T01:46:37.935Z,10.60
2022-11-04T01:49:20.541Z,10.60
2022-11-04T01:51:51.762Z,10.60
2022-11-04T01:54:20.865Z,10.80
2022-11-04T01:56:50.375Z,10.80
2022-11-04T01:59:23.664Z,10.90
2022-11-04T02:01:54.263Z,11.00
2022-11-04T02:04:30.219Z,11.10
2022-11-04T02:06:59.752Z,11.10
2022-11-04T02:09:31.031Z,11.10
2022-11-04T02:12:17.032Z,11.10
2022-11-04T02:14:47.869Z,11.10
2022-11-04T02:17:40.895Z,11.10
2022-11-04T02:20:34.842Z,11.10
2022-11-04T02:23:46.570Z,11.10
2022-11-04T02:26:43.203Z,11.10
2022-11-04T02:29:25.069Z,11.10
2022-11-04T02:32:00.512Z,11.10
2022-11-04T02:34:36.517Z,11.10
2022-11-04T02:37:14.217Z,11.00
2022-11-04T02:39:52.698Z,11.00
2022-11-04T02:42:29.708Z,10.90
2022-11-04T02:45:14.535Z,10.80
2022-11-04T02:47:47.053Z,10.80
2022-11-04T02:50:20.901Z,10.80
2022-11-04T02:52:57.062Z,10.80
2022-11-04T02:55:29.295Z,10.80
2022-11-04T02:58:00.484Z,10.70
2022-11-04T03:00:31.473Z,10.70
2022-11-04T03:03:05.491Z,10.70
2022-11-04T03:05:36.240Z,10.60
2022-11-04T03:08:09.986Z,10.60
2022-11-04T03:10:41.205Z,10.60
2022-11-04T03:13:15.382Z,10.60
2022-11-04T03:15:51.078Z,10.50
2022-11-04T03:18:25.315Z,10.50
2022-11-04T03:20:57.651Z,10.50
2022-11-04T03:23:25.968Z,10.50
2022-11-04T03:25:58.989Z,10.50
2022-11-04T03:28:38.944Z,10.40
2022-11-04T03:31:14.237Z,10.40
2022-11-04T03:33:47.065Z,10.40
2022-11-04T03:36:15.256Z,10.40
2022-11-04T03:38:43.820Z,10.40
2022-11-04T03:41:16.664Z,10.50
2022-11-04T03:43:44.973Z,10.50
2022-11-04T03:46:14.769Z,10.50
2022-11-04T03:48:45.393Z,10.40
2022-11-04T03:51:13.553Z,10.30
2022-11-04T03:53:42.720Z,10.10
2022-11-04T03:56:44.594Z,10.10
2022-11-04T03:59:31.073Z,10.10
2022-11-04T04:02:07.044Z,10.00
2022-11-04T04:04:38.436Z,10.00
2022-11-04T04:07:13.648Z,10.00
2022-11-04T04:09:46.412Z,10.00
2022-11-04T04:12:26.084Z,9.90
2022-11-04T04:14:56.939Z,9.80
2022-11-04T04:17:34.024Z,9.80
2022-11-04T04:20:05.409Z,9.80
2022-11-04T04:22:37.452Z,9.80
2022-11-04T04:25:27.585Z,9.70
2022-11-04T04:27:58.032Z,9.70
2022-11-04T04:30:26.861Z,9.70
2022-11-04T04:33:00.526Z,9.60
2022-11-04T04:35:43.230Z,9.50
2022-11-04T04:38:36.431Z,9.50
2022-11-04T04:41:28.549Z,9.50
2022-11-04T04:44:15.598Z,9.50
2022-11-04T04:46:45.725Z,9.50
2022-11-04T04:49:15.481Z,9.50
2022-11-04T04:51:47.244Z,9.50
2022-11-04T04:54:15.922Z,9.50
2022-11-04T04:56:44.066Z,9.40
2022-11-04T04:59:12.212Z,9.40
2022-11-04T05:01:40.965Z,9.40
2022-11-04T05:04:09.244Z,9.40
2022-11-04T05:06:38.855Z,9.50
2022-11-04T05:09:07.074Z,9.40
2022-11-04T05:11:35.293Z,9.40
2022-11-04T05:14:03.409Z,9.40
2022-11-04T05:16:34.324Z,9.40
2022-11-04T05:19:04.875Z,9.40
2022-11-04T05:21:33.186Z,9.30
2022-11-04T05:24:02.825Z,9.40
2022-11-04T05:26:30.998Z,9.30
2022-11-04T05:28:59.170Z,9.30
2022-11-04T05:31:27.677Z,9.30
2022-11-04T05:33:55.830Z,9.20
2022-11-04T05:36:24.059Z,9.20
2022-11-04T05:38:53.141Z,9.20
2022-11-04T05:41:26.823Z,9.20
2022-11-04T05:43:56.106Z,9.20
2022-11-04T05:46:24.277Z,9.30
2022-11-04T05:48:52.659Z,9.30
2022-11-04T05:51:23.494Z,9.20
2022-11-04T05:53:51.928Z,9.20
2022-11-04T05:56:20.322Z,9.10
2022-11-04T05:58:49.964Z,9.10
2022-11-04T06:01:35.944Z,9.10
2022-11-04T06:04:06.556Z,9.10
2022-11-04T06:06:36.406Z,9.10
2022-11-04T06:09:05.439Z,9.10
2022-11-04T06:11:35.040Z,9.10
2022-11-04T06:14:04.720Z,9.10
2022-11-04T06:16:33.078Z,9.10
2022-11-04T06:19:05.926Z,9.10
2022-11-04T06:21:37.832Z,9.20
2022-11-04T06:24:06.321Z,9.20
2022-11-04T06:26:34.471Z,9.20
2022-11-04T06:29:04.020Z,9.10
2022-11-04T06:31:32.326Z,9.10
2022-11-04T06:34:00.481Z,9.00
2022-11-04T06:36:29.019Z,9.00
2022-11-04T06:39:03.009Z,9.00
2022-11-04T06:41:33.048Z,9.00
2022-11-04T06:44:01.278Z,9.00
2022-11-04T06:46:36.180Z,9.00
2022-11-04T06:49:05.046Z,9.00
2022-11-04T06:51:33.493Z,9.00
2022-11-04T06:54:01.716Z,9.00
2022-11-04T06:56:29.906Z,9.00
2022-11-04T06:58:58.613Z,9.00
2022-11-04T07:01:29.622Z,9.00
2022-11-04T07:04:00.866Z,9.10
2022-11-04T07:06:30.189Z,9.10
2022-11-04T07:08:59.913Z,9.10
2022-11-04T07:11:30.543Z,9.10
2022-11-04T07:13:58.816Z,9.10
2022-11-04T07:16:27.074Z,9.10
2022-11-04T07:18:56.380Z,9.00
2022-11-04T07:21:25.906Z,9.00
2022-11-04T07:23:54.264Z,9.00
2022-11-04T07:26:22.776Z,9.00
2022-11-04T07:28:51.163Z,8.90
2022-11-04T07:31:19.352Z,8.80
2022-11-04T07:33:50.159Z,8.90
2022-11-04T07:36:19.483Z,8.80
2022-11-04T07:38:49.297Z,8.80
2022-11-04T07:41:18.797Z,8.80
2022-11-04T07:43:50.997Z,8.80
2022-11-04T07:46:20.129Z,8.80
2022-11-04T07:48:48.398Z,8.80
2022-11-04T07:51:19.468Z,8.80
2022-11-04T07:53:49.091Z,8.80
2022-11-04T07:56:17.287Z,8.80
2022-11-04T07:58:45.648Z,8.80
2022-11-04T08:01:16.531Z,8.80
2022-11-04T08:03:44.879Z,8.90
2022-11-04T08:06:15.858Z,8.80
2022-11-04T08:08:44.558Z,8.80
2022-11-04T08:11:17.940Z,8.90
2022-11-04T08:13:47.150Z,8.90
2022-11-04T08:16:17.104Z,9.00
2022-11-04T08:18:46.476Z,9.00
2022-11-04T08:21:15.285Z,9.10
2022-11-04T08:23:43.654Z,9.10
2022-11-04T08:26:15.776Z,9.10
2022-11-04T08:28:44.323Z,9.20
2022-11-04T08:31:15.897Z,9.20
2022-11-04T08:33:44.703Z,9.20
2022-11-04T08:36:16.878Z,9.20
2022-11-04T08:38:45.404Z,9.30
2022-11-04T08:41:16.883Z,9.30
2022-11-04T08:43:45.166Z,9.40
2022-11-04T08:46:14.033Z,9.40
2022-11-04T08:48:43.264Z,9.50
2022-11-04T08:51:15.000Z,9.60
2022-11-04T08:53:42.921Z,9.60
2022-11-04T08:56:14.869Z,9.60
2022-11-04T08:58:43.255Z,9.60
2022-11-04T09:01:12.801Z,9.50
2022-11-04T09:03:42.362Z,9.70
2022-11-04T09:06:14.749Z,9.50
2022-11-04T09:08:43.557Z,9.40
2022-11-04T09:11:14.651Z,9.40
2022-11-04T09:13:42.863Z,9.40
2022-11-04T09:16:12.917Z,9.40
2022-11-04T09:18:41.408Z,9.40
2022-11-04T09:21:10.748Z,9.60
2022-11-04T09:23:39.451Z,9.60
2022-11-04T09:26:09.695Z,9.70
2022-11-04T09:28:40.467Z,9.70
2022-11-04T09:31:09.937Z,9.80
2022-11-04T09:33:38.095Z,9.90
2022-11-04T09:36:08.155Z,9.90
2022-11-04T09:38:37.794Z,10.00
2022-11-04T09:41:21.201Z,10.00
2022-11-04T09:43:57.708Z,10.10
2022-11-04T09:46:26.140Z,10.10
2022-11-04T09:48:57.704Z,10.00
2022-11-04T09:51:52.717Z,10.10
2022-11-04T09:54:22.836Z,10.20
2022-11-04T09:56:53.213Z,10.30
2022-11-04T09:59:30.480Z,10.40
2022-11-04T10:02:21.899Z,10.50
2022-11-04T10:04:54.889Z,10.60
2022-11-04T10:07:40.862Z,10.70
2022-11-04T10:10:16.915Z,10.90
2022-11-04T10:13:02.302Z,11.00
2022-11-04T10:15:58.044Z,10.90
2022-11-04T10:18:43.964Z,10.90
2022-11-04T10:21:26.176Z,10.90
2022-11-04T10:24:07.593Z,11.00
2022-11-04T10:26:42.658Z,11.00
2022-11-04T10:29:16.707Z,11.10
2022-11-04T10:31:48.181Z,11.30
2022-11-04T10:34:27.783Z,11.40
2022-11-04T10:36:57.166Z,11.30
2022-11-04T10:39:30.663Z,11.30
2022-11-04T10:41:59.377Z,11.20
2022-11-04T10:44:29.749Z,11.10
2022-11-04T10:47:08.842Z,11.10
2022-11-04T10:50:13.923Z,11.10
2022-11-04T10:52:37.753Z,11.10
2022-11-04T10:55:17.004Z,11.20
2022-11-04T10:57:45.499Z,11.20
2022-11-04T11:00:34.781Z,11.20
2022-11-04T11:03:04.581Z,11.20
2022-11-04T11:05:32.728Z,11.40
2022-11-04T11:08:00.888Z,11.50
2022-11-04T11:10:32.368Z,11.60
2022-11-04T11:13:02.314Z,11.70
2022-11-04T11:15:35.160Z,11.60
2022-11-04T11:18:16.771Z,11.70
2022-11-04T11:20:50.456Z,12.00
2022-11-04T11:23:37.654Z,12.40
2022-11-04T11:26:08.313Z,12.80
2022-11-04T11:28:39.469Z,13.30
2022-11-04T11:31:16.791Z,14.00
2022-11-04T11:33:52.933Z,14.40
2022-11-04T11:36:24.479Z,15.10
2022-11-04T11:38:54.439Z,15.50
2022-11-04T11:41:31.377Z,15.80
2022-11-04T11:44:05.769Z,15.50
2022-11-04T11:46:36.454Z,15.60
2022-11-04T11:49:07.333Z,16.00
2022-11-04T11:51:37.547Z,16.90
2022-11-04T11:54:16.641Z,17.60
2022-11-04T11:57:12.032Z,18.30
2022-11-04T12:02:37.443Z,21.20
2022-11-04T12:11:02.250Z,23.40
2022-11-04T12:13:36.621Z,23.50
2022-11-04T12:16:21.262Z,24.60
2022-11-04T12:19:11.074Z,25.40
2022-11-04T12:21:46.041Z,25.50
2022-11-04T12:24:28.779Z,24.90
2022-11-04T12:27:06.445Z,25.20
2022-11-04T12:29:47.077Z,25.20
2022-11-04T12:32:26.979Z,25.30
2022-11-04T12:35:09.004Z,24.90
2022-11-04T12:37:47.409Z,24.60
2022-11-04T12:40:22.438Z,24.10
2022-11-04T12:43:04.895Z,24.20
2022-11-04T12:45:46.712Z,24.30
2022-11-04T12:48:31.817Z,24.20
2022-11-04T12:51:10.773Z,23.90
2022-11-04T12:54:02.912Z,23.50
2022-11-04T12:56:38.410Z,22.90
2022-11-04T12:59:26.849Z,22.20
2022-11-04T13:01:59.478Z,21.30
2022-11-04T13:04:32.589Z,20.50
2022-11-04T13:07:05.126Z,20.20
2022-11-04T13:09:40.677Z,19.70
2022-11-04T13:12:13.208Z,19.50
2022-11-04T13:14:47.408Z,19.20
2022-11-04T13:17:19.632Z,19.00
2022-11-04T13:19:51.806Z,18.90
2022-11-04T13:22:24.081Z,18.70
2022-11-04T13:24:57.760Z,18.50
2022-11-04T13:27:28.837Z,18.20
2022-11-04T13:30:06.541Z,18.00
2022-11-04T13:32:41.798Z,17.90
2022-11-04T13:35:19.664Z,17.80
2022-11-04T13:37:58.304Z,18.00
2022-11-04T13:40:35.314Z,18.10
2022-11-04T13:43:39.806Z,18.20
2022-11-04T13:46:20.012Z,18.20
2022-11-04T13:49:07.436Z,18.20
2022-11-04T13:51:38.905Z,18.10
2022-11-04T13:54:07.754Z,18.00
2022-11-04T13:56:40.030Z,18.00
2022-11-04T13:59:20.987Z,17.80
2022-11-04T14:01:49.556Z,17.60
2022-11-04T14:04:29.406Z,17.50
2022-11-04T14:07:00.086Z,17.30
2022-11-04T14:09:57.306Z,17.10
2022-11-04T14:12:37.002Z,17.00
2022-11-04T14:15:12.477Z,16.80
2022-11-04T14:18:02.745Z,16.60
2022-11-04T14:20:34.113Z,16.50
2022-11-04T14:23:04.023Z,16.20
2022-11-04T14:25:38.437Z,16.00
2022-11-04T14:28:26.924Z,15.90
2022-11-04T14:30:57.536Z,15.90
2022-11-04T14:33:50.301Z,16.00
2022-11-04T14:36:27.722Z,16.30
2022-11-04T14:38:59.634Z,16.80
2022-11-04T14:41:56.327Z,17.40
2022-11-04T14:44:32.458Z,18.10
2022-11-04T14:47:04.250Z,18.70
2022-11-04T14:49:45.389Z,19.20
2022-11-04T14:52:21.885Z,19.60
2022-11-04T14:54:51.863Z,19.70
2022-11-04T14:57:21.598Z,19.60
2022-11-04T14:59:52.362Z,19.40
2022-11-04T15:02:22.978Z,19.00
2022-11-04T15:04:56.681Z,18.60
2022-11-04T15:07:28.015Z,18.20
2022-11-04T15:09:56.129Z,17.90
2022-11-04T15:12:41.793Z,17.70
2022-11-04T15:15:33.737Z,17.50
2022-11-04T15:18:05.552Z,17.30
2022-11-04T15:20:47.261Z,17.10
2022-11-04T15:23:16.652Z,17.00
2022-11-04T15:25:48.687Z,16.70
2022-11-04T15:28:25.739Z,16.40
2022-11-04T15:31:08.565Z,16.20
2022-11-04T15:33:41.637Z,15.90
2022-11-04T15:36:15.057Z,15.60
2022-11-04T15:38:47.932Z,15.30
2022-11-04T15:41:38.426Z,15.00
2022-11-04T15:44:15.304Z,14.70
2022-11-04T15:46:53.109Z,14.50
2022-11-04T15:49:26.420Z,14.20
2022-11-04T15:51:57.085Z,14.00
2022-11-04T15:54:29.649Z,13.80
2022-11-04T15:57:01.234Z,13.70
2022-11-04T15:59:30.531Z,13.50
2022-11-04T16:02:00.905Z,13.40
2022-11-04T16:04:30.557Z,13.30
2022-11-04T16:07:08.295Z,13.20
2022-11-04T16:09:48.311Z,13.10
2022-11-04T16:12:18.955Z,13.00
2022-11-04T16:14:52.248Z,12.90
2022-11-04T16:17:22.636Z,12.90
2022-11-04T16:19:53.657Z,12.80
2022-11-04T16:22:26.441Z,12.70
2022-11-04T16:24:56.257Z,12.70
2022-11-04T16:27:25.155Z,12.60
2022-11-04T16:29:56.485Z,12.60
2022-11-04T16:32:31.656Z,12.50
2022-11-04T16:35:04.097Z,12.40
2022-11-04T16:37:32.714Z,12.20
2022-11-04T16:40:00.916Z,12.10
2022-11-04T16:42:29.177Z,12.00
2022-11-04T16:45:02.231Z,11.90
2022-11-04T16:47:32.255Z,11.80
2022-11-04T16:50:01.914Z,11.70
2022-11-04T16:52:30.237Z,11.70
2022-11-04T16:54:58.407Z,11.70
2022-11-04T16:57:26.732Z,11.60
2022-11-04T16:59:56.342Z,11.60
2022-11-04T17:02:28.482Z,11.50
2022-11-04T17:04:58.690Z,11.40
2022-11-04T17:07:47.398Z,11.40
2022-11-04T17:10:17.748Z,11.40
2022-11-04T17:12:46.533Z,11.30
2022-11-04T17:15:16.136Z,11.30
2022-11-04T17:17:44.740Z,11.20
2022-11-04T17:20:17.694Z,11.20
2022-11-04T17:22:47.035Z,11.10
2022-11-04T17:25:19.575Z,11.10
2022-11-04T17:27:47.896Z,11.10
2022-11-04T17:30:17.312Z,11.00
2022-11-04T17:32:46.683Z,11.00
2022-11-04T17:35:17.771Z,10.90
2022-11-04T17:37:47.199Z,10.80
2022-11-04T17:40:17.546Z,10.80
2022-11-04T17:43:08.523Z,10.70
2022-11-04T17:45:39.715Z,10.70
2022-11-04T17:48:08.591Z,10.70
2022-11-04T17:50:39.385Z,10.60
2022-11-04T17:53:08.015Z,10.60
2022-11-04T17:55:40.008Z,10.60
2022-11-04T17:58:07.978Z,10.60
2022-11-04T18:00:36.170Z,10.50
2022-11-04T18:03:04.307Z,10.50
2022-11-04T18:05:32.437Z,10.50
2022-11-04T18:08:02.708Z,10.50
2022-11-04T18:10:30.890Z,10.40
2022-11-04T18:12:58.127Z,10.40
2022-11-04T18:15:26.299Z,10.50
2022-11-04T18:17:54.458Z,10.40
2022-11-04T18:20:22.616Z,10.40
2022-11-04T18:22:50.732Z,10.40
2022-11-04T18:25:20.476Z,10.30
2022-11-04T18:27:49.076Z,10.30
2022-11-04T18:30:17.328Z,10.30
2022-11-04T18:32:45.496Z,10.30
2022-11-04T18:35:13.711Z,10.30
2022-11-04T18:37:46.994Z,10.50
2022-11-04T18:40:16.470Z,10.30
2022-11-04T18:42:46.070Z,10.40
2022-11-04T18:45:14.255Z,10.30
2022-11-04T18:47:42.502Z,10.20
2022-11-04T18:50:11.448Z,10.30
2022-11-04T18:52:40.453Z,10.30
2022-11-04T18:55:09.849Z,10.30
2022-11-04T18:57:38.119Z,10.30
2022-11-04T19:00:14.241Z,10.30
2022-11-04T19:02:44.961Z,10.20
2022-11-04T19:05:13.228Z,10.20
2022-11-04T19:07:42.067Z,10.20
2022-11-04T19:10:11.229Z,10.20
2022-11-04T19:12:56.947Z,10.20
2022-11-04T19:15:27.070Z,10.20
2022-11-04T19:17:55.247Z,10.20
2022-11-04T19:20:23.912Z,10.20
2022-11-04T19:22:52.161Z,10.20
2022-11-04T19:25:20.446Z,10.30
2022-11-04T19:28:05.270Z,10.30
2022-11-04T19:30:38.331Z,10.30
2022-11-04T19:33:06.582Z,10.20
2022-11-04T19:35:34.735Z,10.20
2022-11-04T19:38:03.139Z,10.20
2022-11-04T19:40:31.278Z,10.00
2022-11-04T19:43:10.257Z,10.00
2022-11-04T19:45:45.464Z,9.90
2022-11-04T19:48:14.536Z,9.90
2022-11-04T19:50:44.463Z,9.80
2022-11-04T19:53:12.870Z,9.50
2022-11-04T19:55:41.381Z,9.30
2022-11-04T19:58:09.903Z,9.10
2022-11-04T20:00:38.334Z,9.10
2022-11-04T20:03:07.885Z,9.00
2022-11-04T20:05:38.958Z,8.90
2022-11-04T20:08:08.456Z,8.80
2022-11-04T20:10:39.380Z,8.80
2022-11-04T20:13:26.015Z,8.80
2022-11-04T20:15:54.242Z,8.80
2022-11-04T20:18:23.800Z,8.80
2022-11-04T20:20:51.974Z,8.80
2022-11-04T20:23:20.139Z,8.90
2022-11-04T20:25:49.173Z,8.90
2022-11-04T20:28:17.347Z,8.90
2022-11-04T20:30:45.486Z,8.90
2022-11-04T20:33:13.640Z,9.00
2022-11-04T20:35:43.245Z,9.00
2022-11-04T20:38:11.728Z,9.00
2022-11-04T20:40:40.103Z,9.00
2022-11-04T20:43:08.510Z,9.00
2022-11-04T20:45:36.673Z,9.10
2022-11-04T20:48:05.359Z,9.10
2022-11-04T20:50:33.817Z,9.20
2022-11-04T20:53:03.404Z,9.10
2022-11-04T20:55:31.655Z,9.10
2022-11-04T20:57:59.769Z,9.00
2022-11-04T21:00:27.932Z,9.00
2022-11-04T21:02:56.057Z,8.90
2022-11-04T21:05:24.267Z,8.90
2022-11-04T21:07:52.461Z,8.90
2022-11-04T21:10:23.517Z,9.00
2022-11-04T21:12:53.330Z,9.00
2022-11-04T21:15:41.004Z,8.90
2022-11-04T21:18:11.943Z,8.90
2022-11-04T21:20:42.272Z,8.80
2022-11-04T21:23:10.830Z,8.80
2022-11-04T21:25:46.229Z,8.80
2022-11-04T21:28:14.521Z,8.80
2022-11-04T21:30:44.917Z,8.80
2022-11-04T21:33:13.306Z,8.80
2022-11-04T21:35:44.061Z,8.80
2022-11-04T21:38:15.981Z,8.80
2022-11-04T21:40:46.248Z,8.80
2022-11-04T21:43:14.763Z,8.80
2022-11-04T21:45:42.947Z,8.70
2022-11-04T21:48:11.498Z,8.70
2022-11-04T21:50:39.832Z,8.60
2022-11-04T21:53:08.002Z,8.50
2022-11-04T21:55:36.243Z,8.50
2022-11-04T21:58:05.872Z,8.40
2022-11-04T22:00:34.016Z,8.40
2022-11-04T22:03:02.183Z,8.40
2022-11-04T22:05:30.342Z,8.40
2022-11-04T22:08:15.985Z,8.30
2022-11-04T22:10:44.177Z,8.30
2022-11-04T22:13:13.805Z,8.40
2022-11-04T22:16:00.680Z,8.40
2022-11-04T22:18:31.760Z,8.40
2022-11-04T22:21:03.853Z,8.30
2022-11-04T22:23:32.177Z,8.30
2022-11-04T22:26:01.603Z,8.30
2022-11-04T22:28:32.000Z,8.30
2022-11-04T22:31:07.204Z,8.30
2022-11-04T22:33:35.693Z,8.30
2022-11-04T22:36:03.836Z,8.20
2022-11-04T22:38:32.597Z,8.20
2022-11-04T22:41:02.609Z,8.30
2022-11-04T22:43:32.133Z,8.30
2022-11-04T22:46:04.972Z,8.30
2022-11-04T22:48:33.337Z,8.30
2022-11-04T22:51:02.163Z,8.30
2022-11-04T22:53:30.347Z,8.30
2022-11-04T22:56:01.595Z,8.30
2022-11-04T22:58:31.322Z,8.30
2022-11-04T23:01:02.025Z,8.30
2022-11-04T23:03:30.684Z,8.20
2022-11-04T23:06:00.756Z,8.30
2022-11-04T23:08:30.419Z,8.30
2022-11-04T23:11:18.494Z,8.30
2022-11-04T23:14:14.296Z,8.40
2022-11-04T23:17:04.438Z,8.40
2022-11-04T23:19:33.094Z,8.40
2022-11-04T23:22:19.104Z,8.40
2022-11-04T23:25:04.457Z,8.40
2022-11-04T23:27:50.385Z,8.40
2022-11-04T23:30:22.545Z,8.40
2022-11-04T23:32:51.081Z,8.40
2022-11-04T23:35:38.541Z,8.40
2022-11-04T23:38:06.812Z,8.40
2022-11-04T23:40:35.191Z,8.50
2022-11-04T23:43:03.533Z,8.50
2022-11-04T23:45:50.326Z,8.50
2022-11-04T23:48:36.532Z,8.50
2022-11-04T23:51:22.475Z,8.40
2022-11-04T23:54:07.876Z,8.50
2022-11-04T23:56:53.387Z,8.50
2022-11-04T23:59:39.081Z,8.50
